createdAt,value
2023-03-20T00:00:37.292Z,20.05
2023-03-20T00:03:25.410Z,19.73
2023-03-20T00:06:17.970Z,18.23
2023-03-20T00:09:07.525Z,19.35
2023-03-20T00:11:56.176Z,18.80
2023-03-20T00:14:44.077Z,20.23
2023-03-20T00:17:31.958Z,20.70
2023-03-20T00:20:20.571Z,19.23
2023-03-20T00:23:08.377Z,23.70
2023-03-20T00:25:56.736Z,19.73
2023-03-20T00:28:48.479Z,19.98
2023-03-20T00:31:40.125Z,21.00
2023-03-20T00:34:29.542Z,19.50
2023-03-20T00:37:17.835Z,19.77
2023-03-20T00:40:07.483Z,20.40
2023-03-20T00:43:03.296Z,17.75
2023-03-20T00:45:51.361Z,19.73
2023-03-20T00:48:41.644Z,18.75
2023-03-20T00:51:29.651Z,17.13
2023-03-20T00:54:18.378Z,15.57
2023-03-20T00:57:28.184Z,16.27
2023-03-20T01:00:40.414Z,18.55
2023-03-20T01:03:30.075Z,14.35
2023-03-20T01:06:19.067Z,16.92
2023-03-20T01:09:06.946Z,16.80
2023-03-20T01:11:54.937Z,17.63
2023-03-20T01:14:43.763Z,15.38
2023-03-20T01:17:31.556Z,15.55
2023-03-20T01:20:25.662Z,16.20
2023-03-20T01:26:01.503Z,16.08
2023-03-20T01:28:54.169Z,16.98
2023-03-20T01:31:42.297Z,16.08
2023-03-20T01:34:30.368Z,16.40
2023-03-20T01:37:28.613Z,17.05
2023-03-20T01:40:52.170Z,18.48
2023-03-20T01:43:40.836Z,19.13
2023-03-20T01:46:32.042Z,16.98
2023-03-20T01:49:19.989Z,17.88
2023-03-20T01:52:07.964Z,17.92
2023-03-20T01:54:55.854Z,17.45
2023-03-20T01:57:44.442Z,17.73
2023-03-20T02:00:32.368Z,18.20
2023-03-20T02:03:21.205Z,20.58
2023-03-20T02:06:09.814Z,16.75
2023-03-20T02:08:57.707Z,21.90
2023-03-20T02:11:47.455Z,19.95
2023-03-20T02:14:37.575Z,19.13
2023-03-20T02:17:25.706Z,19.50
2023-03-20T02:20:41.496Z,20.02
2023-03-20T02:23:48.502Z,21.50
2023-03-20T02:26:49.984Z,19.73
2023-03-20T02:30:18.520Z,20.67
2023-03-20T02:33:47.055Z,21.83
2023-03-20T02:37:31.616Z,20.02
2023-03-20T02:40:38.507Z,22.92
2023-03-20T02:43:43.537Z,23.10
2023-03-20T02:46:54.913Z,19.98
2023-03-20T02:50:09.357Z,21.23
2023-03-20T02:53:45.148Z,22.83
2023-03-20T02:56:51.223Z,21.08
2023-03-20T02:59:49.551Z,19.52
2023-03-20T03:02:45.273Z,19.25
2023-03-20T03:05:48.647Z,21.05
2023-03-20T03:08:43.518Z,18.80
2023-03-20T03:11:34.805Z,19.00
2023-03-20T03:14:47.212Z,20.23
2023-03-20T03:17:37.173Z,19.58
2023-03-20T03:20:37.141Z,22.83
2023-03-20T03:23:52.911Z,18.85
2023-03-20T03:26:42.259Z,20.90
2023-03-20T03:29:36.876Z,21.20
2023-03-20T03:32:39.651Z,18.70
2023-03-20T03:35:27.558Z,19.70
2023-03-20T03:38:38.272Z,20.08
2023-03-20T03:41:43.571Z,20.13
2023-03-20T03:44:44.182Z,19.15
2023-03-20T03:47:39.542Z,20.88
2023-03-20T03:50:54.253Z,18.02
2023-03-20T03:54:02.186Z,18.33
2023-03-20T03:56:52.697Z,20.20
2023-03-20T03:59:49.841Z,20.27
2023-03-20T04:02:38.445Z,20.85
2023-03-20T04:05:35.130Z,22.00
2023-03-20T04:08:23.155Z,20.80
2023-03-20T04:11:20.510Z,21.08
2023-03-20T04:14:09.578Z,21.13
2023-03-20T04:16:57.492Z,22.48
2023-03-20T04:19:45.317Z,21.65
2023-03-20T04:22:34.881Z,20.50
2023-03-20T04:25:26.432Z,21.35
2023-03-20T04:28:16.656Z,18.80
2023-03-20T04:31:04.764Z,23.30
2023-03-20T04:33:52.698Z,22.65
2023-03-20T04:36:40.492Z,25.42
2023-03-20T04:39:28.703Z,25.38
2023-03-20T04:42:16.558Z,22.42
2023-03-20T04:45:06.122Z,21.27
2023-03-20T04:47:54.005Z,21.05
2023-03-20T04:50:42.348Z,21.23
2023-03-20T04:53:30.357Z,21.35
2023-03-20T04:56:18.302Z,20.02
2023-03-20T04:59:06.174Z,19.02
2023-03-20T05:01:54.170Z,23.48
2023-03-20T05:04:45.432Z,21.08
2023-03-20T05:07:33.629Z,22.45
2023-03-20T05:10:21.750Z,20.77
2023-03-20T05:13:09.492Z,25.92
2023-03-20T05:15:57.516Z,23.20
2023-03-20T05:18:45.554Z,22.25
2023-03-20T05:21:33.396Z,24.30
2023-03-20T05:24:21.570Z,22.92
2023-03-20T05:27:09.646Z,23.17
2023-03-20T05:29:57.528Z,25.77
2023-03-20T05:32:45.923Z,27.60
2023-03-20T05:35:33.946Z,24.80
2023-03-20T05:38:25.706Z,24.30
2023-03-20T05:41:13.512Z,27.33
2023-03-20T05:44:01.728Z,28.77
2023-03-20T05:46:49.681Z,25.58
2023-03-20T05:49:37.993Z,33.85
2023-03-20T05:52:26.783Z,33.20
2023-03-20T05:55:15.422Z,37.03
2023-03-20T05:58:06.213Z,36.00
2023-03-20T06:00:54.079Z,36.92
2023-03-20T06:03:49.085Z,37.92
2023-03-20T06:06:38.013Z,38.83
2023-03-20T06:09:26.055Z,36.70
2023-03-20T06:12:13.847Z,37.08
2023-03-20T06:15:01.805Z,40.60
2023-03-20T06:17:49.767Z,33.97
2023-03-20T06:20:37.902Z,33.92
2023-03-20T06:23:25.822Z,36.00
2023-03-20T06:26:14.154Z,31.40
2023-03-20T06:29:02.241Z,37.70
2023-03-20T06:31:50.636Z,33.83
2023-03-20T06:34:38.984Z,37.95
2023-03-20T06:37:27.257Z,37.83
2023-03-20T06:40:18.171Z,34.53
2023-03-20T06:43:11.681Z,33.70
2023-03-20T06:45:59.851Z,37.40
2023-03-20T06:48:48.717Z,34.13
2023-03-20T06:51:42.248Z,36.83
2023-03-20T06:54:39.913Z,30.65
2023-03-20T06:57:27.980Z,33.67
2023-03-20T07:00:16.805Z,36.53
2023-03-20T07:03:04.848Z,35.65
2023-03-20T07:05:53.294Z,33.70
2023-03-20T07:08:41.479Z,39.63
2023-03-20T07:11:30.255Z,38.90
2023-03-20T07:14:18.258Z,42.30
2023-03-20T07:17:06.646Z,42.95
2023-03-20T07:19:54.742Z,44.38
2023-03-20T07:22:43.440Z,42.72
2023-03-20T07:25:41.763Z,46.90
2023-03-20T07:28:30.671Z,53.70
2023-03-20T07:31:26.546Z,56.17
2023-03-20T07:37:23.532Z,57.08
2023-03-20T07:40:12.536Z,52.05
2023-03-20T07:43:01.540Z,49.10
2023-03-20T07:45:49.617Z,51.55
2023-03-20T07:48:37.720Z,46.72
2023-03-20T07:51:25.885Z,55.25
2023-03-20T07:54:17.410Z,51.70
2023-03-20T07:57:05.709Z,53.72
2023-03-20T07:59:53.856Z,61.97
2023-03-20T08:02:41.904Z,57.22
2023-03-20T08:05:31.245Z,57.42
2023-03-20T08:08:25.458Z,64.43
2023-03-20T08:14:02.225Z,58.22
2023-03-20T08:17:06.159Z,51.35
2023-03-20T08:19:59.196Z,56.20
2023-03-20T08:22:47.354Z,50.70
2023-03-20T08:25:35.938Z,46.28
2023-03-20T08:28:36.482Z,47.80
2023-03-20T08:31:32.544Z,48.40
2023-03-20T08:34:22.907Z,50.50
2023-03-20T08:37:14.193Z,55.65
2023-03-20T08:40:06.269Z,46.60
2023-03-20T08:42:55.449Z,49.70
2023-03-20T08:45:46.932Z,44.22
2023-03-20T08:48:38.117Z,46.67
2023-03-20T08:51:26.583Z,45.55
2023-03-20T08:54:18.347Z,43.33
2023-03-20T08:57:07.449Z,40.83
2023-03-20T08:59:55.676Z,44.08
2023-03-20T09:02:45.603Z,45.75
2023-03-20T09:05:37.675Z,44.67
2023-03-20T09:08:25.720Z,39.20
2023-03-20T09:11:13.719Z,40.65
2023-03-20T09:14:01.838Z,42.40
2023-03-20T09:16:50.938Z,41.15
2023-03-20T09:19:45.025Z,41.17
2023-03-20T09:22:33.408Z,42.45
2023-03-20T09:25:21.343Z,43.83
2023-03-20T09:28:09.297Z,50.40
2023-03-20T09:30:58.225Z,50.97
2023-03-20T09:33:46.228Z,53.92
2023-03-20T09:36:36.347Z,57.38
2023-03-20T09:39:25.875Z,50.90
2023-03-20T09:42:54.980Z,43.83
2023-03-20T09:46:12.506Z,44.90
2023-03-20T09:49:41.078Z,47.50
2023-03-20T09:52:49.649Z,38.90
2023-03-20T09:55:41.619Z,41.60
2023-03-20T09:58:36.488Z,44.47
2023-03-20T10:01:32.012Z,43.55
2023-03-20T10:04:29.282Z,42.90
2023-03-20T10:07:19.395Z,39.58
2023-03-20T10:10:10.998Z,40.38
2023-03-20T10:13:56.125Z,37.58
2023-03-20T10:17:41.874Z,40.55
2023-03-20T10:20:36.356Z,39.92
2023-03-20T10:23:58.859Z,40.83
2023-03-20T10:26:51.606Z,41.50
2023-03-20T10:29:59.401Z,46.38
2023-03-20T10:33:25.433Z,40.17
2023-03-20T10:36:30.095Z,38.75
2023-03-20T10:39:34.597Z,36.03
2023-03-20T10:45:23.302Z,34.95
2023-03-20T10:48:23.938Z,35.80
2023-03-20T10:51:18.574Z,30.17
2023-03-20T10:54:43.146Z,23.00
2023-03-20T10:57:45.712Z,28.48
2023-03-20T11:00:35.481Z,35.25
2023-03-20T11:03:28.976Z,30.48
2023-03-20T11:06:29.208Z,30.97
2023-03-20T11:09:22.539Z,25.27
2023-03-20T11:12:20.488Z,23.10
2023-03-20T11:15:33.433Z,22.80
2023-03-20T11:18:26.267Z,19.35
2023-03-20T11:21:27.847Z,18.58
2023-03-20T11:24:45.529Z,22.67
2023-03-20T11:27:37.039Z,22.20
2023-03-20T11:30:25.088Z,20.20
2023-03-20T11:33:14.270Z,20.65
2023-03-20T11:36:02.438Z,23.67
2023-03-20T11:38:52.381Z,19.25
2023-03-20T11:42:01.941Z,17.90
2023-03-20T11:45:02.389Z,17.20
2023-03-20T11:47:57.677Z,16.25
2023-03-20T11:51:21.131Z,20.30
2023-03-20T11:54:23.703Z,16.45
2023-03-20T11:57:34.208Z,19.33
2023-03-20T12:00:50.053Z,17.50
2023-03-20T12:04:09.121Z,15.75
2023-03-20T12:07:02.684Z,17.63
2023-03-20T12:10:01.759Z,17.90
2023-03-20T12:13:06.823Z,15.70
2023-03-20T12:16:15.454Z,16.40
2023-03-20T12:19:18.134Z,14.00
2023-03-20T12:22:27.393Z,15.52
2023-03-20T12:25:46.771Z,15.00
2023-03-20T12:28:52.616Z,12.88
2023-03-20T12:31:50.469Z,14.38
2023-03-20T12:35:16.546Z,13.43
2023-03-20T12:38:19.696Z,13.23
2023-03-20T12:41:30.608Z,14.38
2023-03-20T12:44:31.289Z,14.73
2023-03-20T12:47:58.087Z,13.30
2023-03-20T12:55:02.915Z,13.63
2023-03-20T12:58:04.181Z,10.13
2023-03-20T13:05:20.621Z,9.55
2023-03-20T13:08:44.861Z,6.03
2023-03-20T13:12:01.823Z,9.00
2023-03-20T13:15:36.984Z,3.92
2023-03-20T13:19:11.587Z,5.50
2023-03-20T13:22:16.758Z,4.60
2023-03-20T13:25:43.609Z,9.30
2023-03-20T13:28:46.347Z,5.10
2023-03-20T13:31:42.425Z,3.00
2023-03-20T13:35:17.853Z,7.63
2023-03-20T13:38:22.059Z,4.13
2023-03-20T13:41:11.236Z,6.80
2023-03-20T13:44:03.914Z,6.82
2023-03-20T13:47:19.073Z,3.80
2023-03-20T13:50:51.678Z,5.18
2023-03-20T13:54:04.634Z,4.03
2023-03-20T13:57:10.934Z,3.83
2023-03-20T14:00:02.182Z,5.65
2023-03-20T14:03:19.678Z,6.80
2023-03-20T14:06:32.261Z,6.10
2023-03-20T14:09:29.841Z,5.38
2023-03-20T14:12:20.698Z,4.10
2023-03-20T14:15:12.531Z,5.63
2023-03-20T14:18:13.533Z,5.45
2023-03-20T14:21:11.852Z,3.60
2023-03-20T14:24:07.385Z,4.97
2023-03-20T14:26:59.512Z,5.68
2023-03-20T14:29:47.607Z,6.53
2023-03-20T14:32:36.672Z,5.78
2023-03-20T14:35:29.059Z,5.38
2023-03-20T14:38:40.577Z,7.95
2023-03-20T14:41:54.865Z,6.63
2023-03-20T14:45:18.563Z,5.15
2023-03-20T14:48:26.070Z,7.20
2023-03-20T14:51:28.891Z,5.78
2023-03-20T14:54:28.641Z,5.80
2023-03-20T14:57:48.719Z,7.10
2023-03-20T15:00:47.590Z,6.53
2023-03-20T15:03:40.531Z,9.15
2023-03-20T15:06:32.620Z,8.07
2023-03-20T15:09:25.997Z,9.55
2023-03-20T15:12:20.162Z,6.93
2023-03-20T15:15:27.620Z,8.32
2023-03-20T15:18:15.616Z,7.30
2023-03-20T15:21:03.944Z,8.60
2023-03-20T15:23:51.864Z,6.15
2023-03-20T15:26:40.015Z,5.80
2023-03-20T15:29:29.810Z,4.82
2023-03-20T15:32:18.540Z,8.38
2023-03-20T15:35:07.314Z,6.47
2023-03-20T15:37:58.740Z,6.90
2023-03-20T15:40:51.414Z,4.75
2023-03-20T15:43:39.730Z,4.30
2023-03-20T15:46:27.795Z,5.50
2023-03-20T15:49:20.634Z,6.50
2023-03-20T15:52:27.042Z,5.57
2023-03-20T15:55:20.199Z,7.75
2023-03-20T15:58:08.269Z,6.25
2023-03-20T16:00:56.291Z,4.65
2023-03-20T16:03:44.804Z,4.15
2023-03-20T16:06:33.822Z,2.75
2023-03-20T16:09:22.340Z,3.03
2023-03-20T16:12:18.301Z,3.92
2023-03-20T16:15:10.950Z,4.22
2023-03-20T16:18:09.268Z,9.63
2023-03-20T16:21:04.253Z,4.80
2023-03-20T16:23:58.471Z,3.42
2023-03-20T16:29:50.351Z,3.15
2023-03-20T16:32:44.368Z,2.45
2023-03-20T16:35:48.595Z,3.03
2023-03-20T16:38:37.960Z,5.90
2023-03-20T16:41:34.567Z,3.28
2023-03-20T16:44:33.929Z,3.42
2023-03-20T16:47:39.236Z,2.45
2023-03-20T16:50:36.883Z,3.20
2023-03-20T16:53:31.431Z,5.95
2023-03-20T16:56:40.703Z,6.07
2023-03-20T16:59:28.650Z,2.90
2023-03-20T17:02:29.358Z,5.35
2023-03-20T17:05:22.177Z,11.80
2023-03-20T17:08:16.234Z,11.48
2023-03-20T17:11:13.285Z,7.32
2023-03-20T17:14:02.789Z,6.20
2023-03-20T17:16:53.776Z,8.07
2023-03-20T17:19:41.984Z,7.82
2023-03-20T17:22:30.500Z,7.30
2023-03-20T17:25:19.538Z,6.95
2023-03-20T17:28:14.788Z,9.43
2023-03-20T17:31:06.613Z,5.63
2023-03-20T17:33:54.711Z,7.63
2023-03-20T17:36:43.010Z,6.72
2023-03-20T17:39:31.139Z,5.45
2023-03-20T17:42:33.415Z,6.63
2023-03-20T17:45:24.133Z,6.90
2023-03-20T17:48:20.874Z,5.13
2023-03-20T17:51:09.804Z,7.70
2023-03-20T17:53:58.123Z,6.00
2023-03-20T17:56:46.614Z,6.30
2023-03-20T17:59:39.861Z,10.95
2023-03-20T18:02:33.503Z,5.47
2023-03-20T18:05:21.996Z,5.35
2023-03-20T18:08:22.162Z,5.95
2023-03-20T18:11:10.647Z,8.23
2023-03-20T18:14:02.248Z,8.07
2023-03-20T18:16:51.443Z,8.98
2023-03-20T18:19:41.260Z,10.63
2023-03-20T18:22:36.785Z,10.80
2023-03-20T18:25:38.089Z,7.45
2023-03-20T18:28:32.780Z,11.50
2023-03-20T18:31:26.805Z,8.73
2023-03-20T18:34:15.325Z,11.20
2023-03-20T18:37:20.992Z,10.48
2023-03-20T18:40:22.650Z,10.30
2023-03-20T18:43:11.402Z,9.20
2023-03-20T18:45:59.907Z,6.65
2023-03-20T18:48:50.055Z,6.50
2023-03-20T18:51:37.947Z,7.55
2023-03-20T18:54:28.934Z,11.98
2023-03-20T18:57:17.634Z,4.93
2023-03-20T19:00:23.481Z,5.40
2023-03-20T19:03:12.443Z,7.32
2023-03-20T19:06:01.014Z,10.45
2023-03-20T19:08:50.864Z,8.25
2023-03-20T19:11:45.213Z,8.85
2023-03-20T19:14:36.100Z,8.73
2023-03-20T19:17:24.429Z,9.00
2023-03-20T19:20:38.985Z,6.85
2023-03-20T19:23:33.089Z,7.18
2023-03-20T19:26:25.078Z,6.72
2023-03-20T19:29:14.183Z,10.35
2023-03-20T19:32:14.851Z,9.20
2023-03-20T19:38:21.752Z,7.90
2023-03-20T19:41:09.846Z,6.95
2023-03-20T19:44:01.716Z,9.70
2023-03-20T19:46:49.887Z,8.27
2023-03-20T19:49:39.389Z,10.55
2023-03-20T19:52:35.224Z,12.25
2023-03-20T19:55:25.116Z,9.27
2023-03-20T19:58:13.929Z,9.25
2023-03-20T20:01:02.627Z,11.45
2023-03-20T20:04:02.192Z,8.38
2023-03-20T20:06:55.294Z,9.35
2023-03-20T20:09:45.593Z,8.07
2023-03-20T20:12:46.353Z,8.15
2023-03-20T20:15:47.628Z,7.78
2023-03-20T20:18:38.481Z,5.45
2023-03-20T20:22:17.156Z,8.75
2023-03-20T20:25:00.572Z,8.23
2023-03-20T20:28:05.444Z,11.75
2023-03-20T20:31:03.725Z,9.02
2023-03-20T20:34:22.499Z,10.45
2023-03-20T20:40:25.017Z,9.13
2023-03-20T20:44:03.650Z,9.73
2023-03-20T20:46:39.676Z,10.88
2023-03-20T20:49:54.187Z,8.20
2023-03-20T20:53:01.699Z,8.05
2023-03-20T20:55:56.001Z,12.27
2023-03-20T20:58:50.980Z,10.88
2023-03-20T21:01:39.524Z,10.10
2023-03-20T21:04:34.577Z,8.07
2023-03-20T21:07:28.941Z,10.35
2023-03-20T21:10:25.204Z,8.70
2023-03-20T21:13:19.202Z,10.55
2023-03-20T21:16:10.457Z,15.20
2023-03-20T21:19:03.764Z,9.85
2023-03-20T21:21:54.767Z,10.00
2023-03-20T21:24:46.071Z,10.40
2023-03-20T21:27:34.138Z,8.57
2023-03-20T21:30:24.360Z,9.27
2023-03-20T21:33:14.780Z,8.95
2023-03-20T21:36:08.876Z,13.32
2023-03-20T21:39:08.182Z,10.27
2023-03-20T21:41:59.085Z,9.88
2023-03-20T21:48:48.140Z,11.00
2023-03-20T21:55:04.000Z,16.45
2023-03-20T22:01:39.297Z,11.40
2023-03-20T22:04:57.637Z,10.38
2023-03-20T22:11:10.767Z,9.20
2023-03-20T22:14:22.445Z,12.80
2023-03-20T22:17:33.040Z,13.93
2023-03-20T22:45:04.127Z,13.77
2023-03-20T22:47:52.627Z,10.32
2023-03-20T22:50:40.858Z,13.68
2023-03-20T22:53:28.870Z,12.23
2023-03-20T22:56:17.295Z,13.48
2023-03-20T22:59:06.935Z,11.85
2023-03-20T23:01:54.886Z,12.65
2023-03-20T23:04:42.883Z,12.30
2023-03-20T23:07:31.091Z,11.45
2023-03-20T23:10:18.997Z,13.02
2023-03-20T23:13:08.569Z,16.40
2023-03-20T23:15:56.716Z,13.25
2023-03-20T23:18:47.712Z,15.15
2023-03-20T23:21:36.153Z,15.77
2023-03-20T23:24:24.162Z,13.80
2023-03-20T23:27:12.413Z,9.75
2023-03-20T23:30:00.557Z,13.05
2023-03-20T23:32:48.713Z,15.30
2023-03-20T23:35:37.135Z,12.45
2023-03-20T23:38:25.702Z,11.10
2023-03-20T23:41:14.528Z,20.25
2023-03-20T23:44:05.440Z,12.68
2023-03-20T23:46:54.740Z,15.40
2023-03-20T23:49:45.788Z,14.07
2023-03-20T23:52:35.158Z,12.00
2023-03-20T23:55:26.584Z,16.70
2023-03-20T23:58:15.107Z,11.48
